Time;durP1;ratioP1;P1;durP2;ratioP2;P2;SDS_P1;SDS_P2;PMS_P1;PMS_P2;Temp;Humidity;BMP_temperature;BMP_pressure;BME280_temperature;BME280_humidity;BME280_pressure;Samples;Min_cycle;Max_cycle;Signal;HPM_P1;HPM_P2
2023/07/06 05:18:29;;;;;;;;;;;;;;;;;;;;;
2023/07/06 05:36:21;;;;;;;7.72;2.80;;;;;;;;;;6102718;23;20010;-78
2023/07/06 05:39:15;;;;;;;6.53;3.25;;;;;;;;;;6127252;23;20274;-78
2023/07/06 05:41:44;;;;;;;7.70;3.67;;;;;;;;;;6149851;23;20069;-77
2023/07/06 05:44:10;;;;;;;6.70;3.63;;;;;;;;;;6124204;23;20028;-76
2023/07/06 05:46:36;;;;;;;5.53;2.55;;;;;;;;;;6124044;23;20456;-76
2023/07/06 05:49:02;;;;;;;6.85;4.43;;;;;;;;;;6123704;23;20021;-76
2023/07/06 06:13:33;;;;;;;3.75;2.00;;;;;;;;;;6153349;23;20092;-77
2023/07/06 06:25:54;;;;;;;8.90;2.10;;;;;;;;;;6150497;23;20020;-80
2023/07/06 07:32:04;;;;;;;5.53;2.08;;;;;;;;;;6178070;23;20479;-78
2023/07/06 09:03:12;;;;;;;7.40;2.00;;;;;;;;;;6191224;23;20034;31
2023/07/06 09:06:18;;;;;;;4.07;1.92;;;;;;;;;;6150923;23;20380;-78
2023/07/06 09:08:45;;;;;;;4.05;1.60;;;;;;;;;;6115460;23;20123;-78
2023/07/06 09:11:12;;;;;;;5.30;2.00;;;;;;;;;;6151512;23;20021;-79
2023/07/06 09:14:07;;;;;;;8.43;2.15;;;;;;;;;;6137144;23;20005;-78
2023/07/06 09:16:44;;;;;;;6.03;1.92;;;;;;;;;;6077155;23;20033;-78
2023/07/06 09:19:10;;;;;;;4.95;1.88;;;;;;;;;;6122098;23;20065;-78
2023/07/06 09:21:36;;;;;;;5.35;1.77;;;;;;;;;;6121602;23;20021;-78
2023/07/06 09:24:03;;;;;;;3.45;1.50;;;;;;;;;;6122046;23;20419;-79
2023/07/06 09:26:35;;;;;;;3.97;1.50;;;;;;;;;;6095172;23;20097;-79
2023/07/06 09:29:11;;;;;;;4.15;1.80;;;;;;;;;;6095188;23;20101;-79
2023/07/06 09:31:37;;;;;;;7.18;1.85;;;;;;;;;;6095595;23;20014;-79
2023/07/06 09:34:10;;;;;;;6.80;1.98;;;;;;;;;;6095173;23;20804;-79
2023/07/06 09:36:36;;;;;;;3.78;1.88;;;;;;;;;;6095665;23;20109;-79
2023/07/06 09:39:04;;;;;;;6.07;2.30;;;;;;;;;;6095196;23;20006;-78
2023/07/06 09:41:32;;;;;;;4.00;1.70;;;;;;;;;;6095584;23;20022;-78
2023/07/06 09:43:59;;;;;;;4.10;1.90;;;;;;;;;;6121720;23;20013;-78
2023/07/06 09:46:27;;;;;;;3.85;1.60;;;;;;;;;;6121551;23;20085;-78
2023/07/06 09:48:54;;;;;;;4.63;1.77;;;;;;;;;;6095229;23;20050;-79
2023/07/06 09:51:36;;;;;;;4.07;1.60;;;;;;;;;;6095594;23;20013;-78
2023/07/06 09:54:02;;;;;;;;;;;;;;;;;;6095503;23;20014;-77
2023/07/06 09:56:29;;;;;;;3.40;1.35;;;;;;;;;;6121835;23;20301;-79
2023/07/06 09:58:55;;;;;;;2.92;1.42;;;;;;;;;;6095428;23;20017;-79
2023/07/06 10:01:42;;;;;;;3.58;1.40;;;;;;;;;;6095745;23;20022;-80
2023/07/06 10:04:14;;;;;;;4.97;1.60;;;;;;;;;;6109588;23;20076;-79
2023/07/06 10:06:50;;;;;;;4.18;1.50;;;;;;;;;;6125130;23;20013;-79
2023/07/06 10:15:17;;;;;;;6.10;1.88;;;;;;;;;;6181132;23;20049;-78
2023/07/06 10:21:22;;;;;;;6.40;2.10;;;;;;;;;;6088130;23;20074;-80
2023/07/06 10:24:06;;;;;;;3.15;1.45;;;;;;;;;;6088590;23;20018;-78
2023/07/06 10:26:34;;;;;;;5.13;1.95;;;;;;;;;;6139317;23;20019;-79
2023/07/06 10:29:05;;;;;;;6.53;1.92;;;;;;;;;;6180219;23;20013;-79
2023/07/06 10:31:46;;;;;;;5.18;1.85;;;;;;;;;;6180192;23;20651;-79
2023/07/06 10:34:18;;;;;;;4.00;1.60;;;;;;;;;;6180119;23;20024;-79
2023/07/06 10:36:44;;;;;;;;;;;;;;;;;;6154922;23;20013;-79
2023/07/06 10:39:25;;;;;;;3.25;1.70;;;;;;;;;;6152485;23;19912;-79
2023/07/06 10:42:00;;;;;;;3.72;1.92;;;;;;;;;;6155978;23;20459;-79
2023/07/06 10:44:43;;;;;;;5.18;1.77;;;;;;;;;;6156293;23;20028;-78
2023/07/06 10:52:31;;;;;;;7.97;2.30;;;;;;;;;;6151667;23;20091;-80
2023/07/06 10:55:38;;;;;;;5.15;2.17;;;;;;;;;;6157623;23;20103;-80
2023/07/06 10:58:25;;;;;;;4.68;1.83;;;;;;;;;;6151309;23;20018;-82
2023/07/06 11:00:52;;;;;;;4.28;1.85;;;;;;;;;;6155490;23;20018;-79
2023/07/06 11:03:22;;;;;;;4.63;1.73;;;;;;;;;;6157134;23;20005;-81
2023/07/06 11:05:56;;;;;;;4.75;2.00;;;;;;;;;;6156991;23;20009;-81
2023/07/06 11:08:42;;;;;;;3.70;1.83;;;;;;;;;;6156969;23;20010;-82
2023/07/06 11:11:17;;;;;;;4.70;1.63;;;;;;;;;;6153444;23;20017;-82
2023/07/06 11:13:53;;;;;;;4.68;1.77;;;;;;;;;;6152887;23;20009;-83
2023/07/06 11:16:41;;;;;;;5.25;2.20;;;;;;;;;;6155221;23;20375;-80
2023/07/06 11:19:13;;;;;;;4.60;2.33;;;;;;;;;;6154534;23;20092;-83
2023/07/06 11:21:48;;;;;;;4.15;1.98;;;;;;;;;;6153944;23;20021;-83
2023/07/06 11:24:18;;;;;;;4.43;2.08;;;;;;;;;;6153597;23;20005;-83
2023/07/06 11:26:50;;;;;;;5.45;1.35;;;;;;;;;;6155056;23;20580;-81
2023/07/06 11:29:19;;;;;;;4.97;1.70;;;;;;;;;;6155917;23;20595;-82
2023/07/06 11:31:45;;;;;;;4.78;1.70;;;;;;;;;;6155041;23;20420;-83
2023/07/06 11:34:30;;;;;;;4.50;1.77;;;;;;;;;;6153235;23;20017;-87
2023/07/06 11:37:14;;;;;;;4.28;1.83;;;;;;;;;;6153016;23;20124;-88
2023/07/06 11:39:49;;;;;;;5.60;1.80;;;;;;;;;;6126258;23;20025;-83
2023/07/06 11:42:25;;;;;;;5.90;1.50;;;;;;;;;;6152675;23;20005;-83
2023/07/06 11:44:54;;;;;;;4.68;1.83;;;;;;;;;;6154775;23;20006;-85
2023/07/06 11:47:41;;;;;;;4.05;1.77;;;;;;;;;;6128111;23;20009;-87
2023/07/06 11:50:11;;;;;;;3.33;1.65;;;;;;;;;;6127128;23;20318;-81
2023/07/06 11:52:44;;;;;;;6.05;1.95;;;;;;;;;;6127969;23;20088;-82
2023/07/06 11:55:31;;;;;;;6.55;1.45;;;;;;;;;;6131335;23;20084;-82
2023/07/06 11:58:28;;;;;;;6.05;1.58;;;;;;;;;;6186048;23;20011;-81
2023/07/06 12:00:55;;;;;;;4.90;1.73;;;;;;;;;;6185052;23;20017;-83
2023/07/06 12:03:26;;;;;;;4.20;1.58;;;;;;;;;;6180974;23;20044;-80
2023/07/06 12:05:54;;;;;;;6.63;1.75;;;;;;;;;;6181787;23;20009;-80
2023/07/06 12:08:27;;;;;;;5.07;1.90;;;;;;;;;;6181926;23;20024;-80
2023/07/06 12:10:56;;;;;;;3.63;1.67;;;;;;;;;;6182552;23;20365;-80
2023/07/06 12:13:22;;;;;;;4.30;1.75;;;;;;;;;;6179848;23;20447;-80
2023/07/06 12:15:51;;;;;;;3.53;1.83;;;;;;;;;;6180717;23;20429;-80
2023/07/06 12:18:20;;;;;;;5.35;1.60;;;;;;;;;;6177912;23;20377;-79
2023/07/06 12:33:16;;;;;;;6.53;1.77;;;;;;;;;;6143975;23;20061;-80
2023/07/06 12:45:39;;;;;;;6.50;2.20;;;;;;;;;;6150886;23;20069;-80
2023/07/06 12:54:02;;;;;;;6.47;1.65;;;;;;;;;;6148693;23;20674;-85
2023/07/06 12:56:31;;;;;;;3.67;1.40;;;;;;;;;;6154528;23;20031;-84
2023/07/06 13:14:41;;;;;;;2.42;0.90;;;;;;;;;;6151964;23;20040;-80
2023/07/06 13:32:50;;;;;;;4.88;1.38;;;;;;;;;;6165676;23;20025;-79
2023/07/06 14:17:49;;;;;;;2.88;1.10;;;;;;;;;;6152741;23;20055;-79
2023/07/06 14:27:05;;;;;;;5.50;1.75;;;;;;;;;;5995221;23;20020;-78
2023/07/06 14:29:52;;;;;;;5.43;1.88;;;;;;;;;;6180694;23;20024;-79
2023/07/06 14:53:00;;;;;;;8.75;2.30;;;;;;;;;;6150469;23;20524;-79
2023/07/06 14:55:33;;;;;;;7.65;2.33;;;;;;;;;;6147452;23;20045;-78
2023/07/06 14:58:31;;;;;;;5.40;2.30;;;;;;;;;;6152180;23;20315;-79
2023/07/06 15:06:22;;;;;;;6.32;2.00;;;;;;;;;;6151697;23;20056;-79
2023/07/06 16:59:54;;;;;;;11.40;4.88;;;;;;;;;;6151248;23;20029;-77
2023/07/06 17:17:25;;;;;;;9.98;4.63;;;;;;;;;;6151042;23;20108;-78
2023/07/06 17:22:43;;;;;;;12.80;4.07;;;;;;;;;;6151314;23;20618;-78
2023/07/06 17:31:41;;;;;;;9.02;4.55;;;;;;;;;;6129840;23;20358;-77
2023/07/06 17:37:37;;;;;;;9.13;4.55;;;;;;;;;;6151140;23;20016;-78
2023/07/06 17:45:49;;;;;;;12.73;4.43;;;;;;;;;;6181769;23;20039;-77
2023/07/06 17:51:37;;;;;;;10.93;4.70;;;;;;;;;;6031371;23;20047;-79
2023/07/06 17:56:33;;;;;;;13.52;5.85;;;;;;;;;;6150438;23;20025;-78
2023/07/06 17:59:01;;;;;;;12.32;5.00;;;;;;;;;;6149322;23;20002;-79
2023/07/06 18:01:28;;;;;;;13.07;5.40;;;;;;;;;;6149955;23;20053;-79
2023/07/06 18:03:57;;;;;;;10.60;5.40;;;;;;;;;;6149289;23;20064;-79
2023/07/06 18:06:23;;;;;;;12.40;5.38;;;;;;;;;;6151229;23;20021;-80
2023/07/06 18:08:49;;;;;;;25.80;11.18;;;;;;;;;;6150437;23;20006;-80
2023/07/06 18:11:17;;;;;;;24.38;13.80;;;;;;;;;;6149398;23;20025;-79
2023/07/06 18:16:39;;;;;;;21.15;10.70;;;;;;;;;;6151333;23;20017;-80
2023/07/06 18:45:40;;;;;;;11.65;5.07;;;;;;;;;;6150606;23;20029;-81
2023/07/06 18:48:06;;;;;;;11.85;5.47;;;;;;;;;;6151019;23;20017;-81
2023/07/06 18:50:32;;;;;;;10.38;5.15;;;;;;;;;;6150816;23;20422;-83
2023/07/06 18:52:59;;;;;;;9.23;5.00;;;;;;;;;;6150976;23;20006;-84
2023/07/06 18:55:25;;;;;;;10.48;4.57;;;;;;;;;;6149951;23;20365;-79
2023/07/06 18:57:51;;;;;;;13.15;5.05;;;;;;;;;;6149130;23;20518;-78
2023/07/06 19:00:17;;;;;;;17.77;5.45;;;;;;;;;;6149321;23;20021;-82
2023/07/06 19:02:43;;;;;;;16.58;5.28;;;;;;;;;;6151384;23;20005;-84
2023/07/06 19:05:09;;;;;;;11.18;5.25;;;;;;;;;;6151264;23;20037;-81
2023/07/06 19:07:35;;;;;;;12.80;4.57;;;;;;;;;;6153561;23;20005;-84
2023/07/06 19:10:02;;;;;;;14.35;6.35;;;;;;;;;;6153082;23;20072;-83
2023/07/06 19:12:28;;;;;;;12.07;6.85;;;;;;;;;;6151249;23;20056;-83
2023/07/06 19:14:54;;;;;;;14.13;6.73;;;;;;;;;;6163859;23;20133;-80
2023/07/06 19:17:20;;;;;;;14.35;6.75;;;;;;;;;;6183072;23;20048;-82
2023/07/06 19:19:47;;;;;;;13.52;5.80;;;;;;;;;;6180474;23;20318;-83
2023/07/06 19:22:16;;;;;;;11.38;5.35;;;;;;;;;;6180588;23;20074;-83
2023/07/06 19:24:45;;;;;;;11.10;4.95;;;;;;;;;;6180213;23;20012;-81
